[ [{"id":"current","city":"Tucson","state":"AZ","station":"KTUS","time":1487908380,"time_local":"2017-02-23T20:53:00-0700","timezone_offset":"-7","current_temp":"53","current_temp_c":"12","dew_point":"16","dew_point_c":"-9","relative_humidity":"23","wind_speed":"8","wind_deg":"310","wind_dir":"NW","wind_gust":"","barometer":"29.97","weather":"","conditions":"Clear","icon":21,"text_icon":"clear_night","ceiling":"Unl","visibility":"10","heat_index":"53","heat_index_c":"12","wind_chill":"53","wind_chill_c":"12","feels_like":"53","feels_like_c":"12","snow_depth":"","high_temp_6hr":"65","high_temp":"80","low_temp_6hr":"57","low_temp":"50","precip_3hr":"","precip_6hr":"","precip":"","coded_weather":"NSW","enhanced_weather":"","report_text":"KTUS 240353Z 31007KT 10SM CLR 12/M09 A2997 RMK AO2 SLP129 T01171089 ","daynight":"N","temp_trend":"LOWER","wind_low":"8","wind_high":"","update":"2017-02-24T03:53:00+0000","image":"http://bloximages.chicago2.vip.townnews.com/tucson.com/content/tncms/live/components/lee_core_2/resources/images/weather-icons/21.png?_dc=1450868986","radar_map":"http://bloximages.chicago2.vip.townnews.com/tucson.com/shared-content/art/townnews-weather/images/southwest_loop.gif?_dc=1487911802","radar_map_us":"http://bloximages.chicago2.vip.townnews.com/tucson.com/shared-content/art/townnews-weather/images/usa_loop.gif?_dc=1487911802"}] ]